KAVL/AVL METAR and TAF weather

Enter ICAO airport designator
Station Type Date Time Source
KAVL METAR 2021/01/22 05:54 UTC NOAA

KAVL 220554Z AUTO 33008KT 10SM CLR 03/00 A2988 RMK AO2 SLP119 T00280000 10044 20028 58010


Station Type Date Time Source
KAVL Decoded METAR 2021/01/22 05:54 UTC NOAA

ASHEVILLE REGIONAL AIRPORT, NC, United States (KAVL) 35-26N 82-32W 670M
Jan 22, 2021 - 12:54 AM EST / 2021.01.22 0554 UTC
Wind: from the NNW (330 degrees) at 9 MPH (8 KT):0
Visibility: 10 mile(s):0
Sky conditions: clear
Temperature: 37.0 F (2.8 C)
Dew Point: 32.0 F (0.0 C)
Relative Humidity: 81%
Pressure (altimeter): 29.88 in. Hg (1011 hPa)
Pressure tendency: 0.03 inches (1.0 hPa) lower than three hours ago
ob: KAVL 220554Z AUTO 33008KT 10SM CLR 03/00 A2988 RMK AO2 SLP119 T00280000 10044 20028 58010
cycle: 6

Station Type Date Time Source
KAVL TAF 2021/01/22 06:42 UTC NOAA

TAF KAVL 220539Z 2206/2306 34009KT P6SM OVC250
FM220800 35005KT P6SM BKN250
FM221700 34011G17KT P6SM SCT250
FM230000 34008KT P6SM FEW250

Example: see airport list